Time;durP1;ratioP1;P1;durP2;ratioP2;P2;SDS_P1;SDS_P2;PMS_P1;PMS_P2;Temp;Humidity;BMP_temperature;BMP_pressure;BME280_temperature;BME280_humidity;BME280_pressure;Samples;Min_cycle;Max_cycle;Signal;HPM_P1;HPM_P2
2023/03/16 00:02:08;;;;;;;5.32;4.00;;;;;;;6.66;84.04;99398.63;5018252;28;20215;-47
2023/03/16 00:04:36;;;;;;;4.05;2.70;;;;;;;6.70;84.33;99396.94;5022979;28;20050;-49
2023/03/16 00:07:05;;;;;;;6.40;3.55;;;;;;;6.71;84.14;99395.19;5023144;28;20047;-47
2023/03/16 00:09:31;;;;;;;6.35;3.67;;;;;;;6.66;84.29;99393.47;5023645;28;20081;-48
2023/03/16 00:12:02;;;;;;;5.20;3.00;;;;;;;6.68;83.93;99389.22;5021036;28;20100;-48
2023/03/16 00:14:29;;;;;;;;;;;;;;;6.66;83.40;99383.19;5024713;28;20041;-47
2023/03/16 00:16:56;;;;;;;7.55;3.63;;;;;;;6.73;83.83;99378.94;5025729;28;20016;-46
2023/03/16 00:19:23;;;;;;;4.57;3.33;;;;;;;6.71;84.96;99378.06;5023271;28;20041;-47
2023/03/16 00:21:50;;;;;;;5.05;3.72;;;;;;;6.77;83.69;99384.94;5028221;28;20168;-47
2023/03/16 00:24:18;;;;;;;6.28;3.35;;;;;;;6.74;83.85;99364.31;5014022;28;20074;-47
2023/03/16 00:26:46;;;;;;;5.95;3.50;;;;;;;6.75;84.78;99360.91;5014429;28;20057;-47
2023/03/16 00:29:13;;;;;;;4.15;2.72;;;;;;;6.75;84.90;99360.91;5020031;28;20085;-47
2023/03/16 00:31:42;;;;;;;7.00;3.53;;;;;;;6.80;83.46;99354.06;5013746;28;20057;-48
2023/03/16 00:34:11;;;;;;;4.53;3.05;;;;;;;6.83;85.26;99348.91;5019487;28;20120;-47
2023/03/16 00:36:37;;;;;;;5.30;3.88;;;;;;;6.80;85.25;99343.75;5019529;28;20049;-47
2023/03/16 00:39:05;;;;;;;5.53;3.80;;;;;;;6.87;84.19;99340.34;5020164;28;20107;-47
2023/03/16 00:41:36;;;;;;;5.90;3.55;;;;;;;6.86;83.78;99338.59;5023073;28;20052;-47
2023/03/16 00:44:04;;;;;;;4.45;2.90;;;;;;;6.80;85.29;99328.31;5025569;28;20099;-48
2023/03/16 00:46:31;;;;;;;3.95;2.67;;;;;;;6.85;84.07;99331.75;5027166;28;20057;-48
2023/03/16 00:48:58;;;;;;;5.60;3.55;;;;;;;6.91;84.89;99343.75;5023690;28;20045;-46
2023/03/16 00:51:24;;;;;;;3.63;3.10;;;;;;;6.90;83.95;99322.31;5021353;28;20081;-48
2023/03/16 00:53:51;;;;;;;4.15;2.20;;;;;;;6.97;84.24;99324.88;5014635;28;20197;-48
2023/03/16 00:56:17;;;;;;;4.32;2.63;;;;;;;6.97;85.27;99317.16;5023065;28;20405;-47
2023/03/16 00:58:44;;;;;;;7.78;3.67;;;;;;;6.97;84.16;99309.44;5026738;28;20077;-47
2023/03/16 01:01:15;;;;;;;3.75;2.67;;;;;;;6.93;85.50;99309.44;5020338;28;20144;-46
2023/03/16 01:03:42;;;;;;;4.45;3.20;;;;;;;6.91;84.86;99303.44;5019036;28;20045;-47
2023/03/16 01:06:12;;;;;;;3.72;3.05;;;;;;;6.98;85.56;99300.84;5018484;28;20068;-47
2023/03/16 01:08:40;;;;;;;3.42;2.67;;;;;;;7.01;85.50;99295.69;5019314;28;20110;-47
2023/03/16 01:11:10;;;;;;;3.97;3.20;;;;;;;7.02;84.55;99284.53;5019761;28;20055;-47
2023/03/16 01:13:38;;;;;;;5.90;5.30;;;;;;;7.01;84.51;99272.53;5013963;28;20472;-48
2023/03/16 01:16:06;;;;;;;4.03;3.33;;;;;;;6.99;84.72;99284.56;5019001;28;20132;-47
2023/03/16 01:18:33;;;;;;;5.15;3.25;;;;;;;7.04;85.83;99275.09;5034804;28;21284;-50
2023/03/16 01:21:02;;;;;;;4.93;3.30;;;;;;;7.04;85.38;99254.50;5020425;28;20053;-48
2023/03/16 01:23:30;;;;;;;4.13;3.20;;;;;;;7.06;85.21;99275.97;5023500;28;20522;-51
2023/03/16 01:25:58;;;;;;;3.97;2.88;;;;;;;7.05;84.77;99261.38;5017610;28;20049;-48
2023/03/16 01:28:27;;;;;;;4.43;3.25;;;;;;;7.10;85.81;99249.38;5021224;28;20045;-49
2023/03/16 01:31:00;;;;;;;4.28;3.22;;;;;;;7.05;85.31;99244.22;5012882;28;20077;-48
2023/03/16 01:33:27;;;;;;;3.83;3.42;;;;;;;7.10;86.17;99241.63;5012396;28;20053;-49
2023/03/16 01:35:55;;;;;;;4.55;3.33;;;;;;;7.14;86.03;99235.63;5013383;28;20148;-47
2023/03/16 01:38:23;;;;;;;6.63;4.30;;;;;;;7.18;85.84;99242.47;5017014;28;20059;-50
2023/03/16 01:40:51;;;;;;;4.30;3.05;;;;;;;7.22;84.78;99237.31;5015952;28;20073;-49
2023/03/16 01:43:20;;;;;;;4.63;3.33;;;;;;;7.21;85.78;99236.47;5016657;28;20571;-47
2023/03/16 01:46:14;;;;;;;7.28;4.15;;;;;;;7.26;85.26;99232.16;5014514;28;20128;-47
2023/03/16 01:48:57;;;;;;;7.13;3.80;;;;;;;7.33;84.89;99235.59;5015257;28;20072;-48
2023/03/16 01:54:06;;;;;;;10.68;5.43;;;;;;;7.71;83.90;99218.28;5045462;27;20815;-48
2023/03/16 01:56:40;;;;;;;11.23;3.67;;;;;;;7.52;85.29;99217.47;5059236;28;20073;-51
2023/03/16 01:59:13;;;;;;;7.55;3.03;;;;;;;7.53;84.63;99217.47;5031757;28;20149;-47
2023/03/16 02:01:40;;;;;;;9.80;3.38;;;;;;;7.49;85.79;99204.63;5036606;28;20154;-48
2023/03/16 02:04:22;;;;;;;6.38;3.30;;;;;;;7.39;86.44;99204.63;5040559;28;20456;-50
2023/03/16 02:06:50;;;;;;;6.82;2.83;;;;;;;7.43;85.06;99206.34;5040221;28;20867;-49
2023/03/16 02:09:18;;;;;;;7.22;3.95;;;;;;;7.49;86.61;99207.19;5035562;28;20560;-47
2023/03/16 02:11:45;;;;;;;7.57;3.55;;;;;;;7.57;85.15;99210.59;5036538;28;20085;-50
2023/03/16 02:14:13;;;;;;;8.48;3.38;;;;;;;7.56;84.69;99201.13;5035956;28;20136;-48
2023/03/16 02:16:40;;;;;;;6.70;3.80;;;;;;;7.60;85.44;99200.25;5039281;28;20053;-48
2023/03/16 02:19:12;;;;;;;6.18;3.47;;;;;;;7.60;85.27;99192.53;5035858;28;20041;-49
2023/03/16 02:21:53;;;;;;;4.78;2.75;;;;;;;7.56;85.31;99186.53;5072029;28;20079;-49
2023/03/16 02:24:20;;;;;;;8.13;3.50;;;;;;;7.62;86.00;99180.50;5031358;28;20076;-48
2023/03/16 02:26:54;;;;;;;7.38;3.17;;;;;;;7.64;86.22;99193.38;5032929;28;20049;-48
2023/03/16 02:31:58;;;;;;;7.68;2.97;;;;;;;7.70;85.63;99171.00;5077517;28;20741;-49
2023/03/16 02:34:26;;;;;;;7.60;5.32;;;;;;;7.73;86.36;99170.13;5007188;28;20046;-50
2023/03/16 02:36:54;;;;;;;9.02;5.32;;;;;;;7.70;86.85;99172.75;4993473;28;20066;-48
2023/03/16 02:39:21;;;;;;;6.68;4.75;;;;;;;7.78;85.34;99159.81;4990118;28;20058;-49
2023/03/16 02:41:47;;;;;;;10.38;6.05;;;;;;;7.80;85.27;99158.09;4996395;28;20498;-48
2023/03/16 02:44:26;;;;;;;9.23;6.38;;;;;;;7.81;85.16;99152.88;4995150;28;20053;-48
2023/03/16 02:46:58;;;;;;;10.50;5.80;;;;;;;7.87;85.45;99153.75;5012418;28;20135;-48
2023/03/16 02:49:32;;;;;;;7.45;3.25;;;;;;;7.83;85.42;99147.72;5017302;28;20049;-49
2023/03/16 02:51:59;;;;;;;14.63;4.93;;;;;;;7.89;85.38;99160.59;5012936;28;20049;-48
2023/03/16 02:54:26;;;;;;;11.98;6.15;;;;;;;7.94;85.67;99151.09;5016883;28;20501;-48
2023/03/16 02:56:52;;;;;;;10.48;6.03;;;;;;;7.94;85.21;99140.78;5014453;28;20053;-48
2023/03/16 02:59:19;;;;;;;8.18;5.10;;;;;;;7.93;86.14;99139.06;5017798;28;20161;-48
2023/03/16 03:01:47;;;;;;;8.88;5.50;;;;;;;7.95;85.75;99137.34;5017896;28;20140;-48
2023/03/16 03:04:15;;;;;;;11.18;6.22;;;;;;;8.00;85.54;99139.88;5011559;28;20046;-51
2023/03/16 03:06:41;;;;;;;11.48;5.47;;;;;;;8.00;85.64;99133.91;5007987;28;20114;-49
2023/03/16 03:09:10;;;;;;;11.35;6.20;;;;;;;8.03;86.51;99128.69;5012968;28;20144;-47
2023/03/16 03:11:37;;;;;;;8.23;5.32;;;;;;;8.05;86.42;99138.16;5011541;28;20061;-50
2023/03/16 03:14:04;;;;;;;10.50;6.07;;;;;;;8.12;85.40;99128.63;5009418;28;20045;-48
2023/03/16 03:16:30;;;;;;;13.07;4.97;;;;;;;8.08;86.17;99130.38;5012082;28;20824;-47
2023/03/16 03:18:58;;;;;;;8.95;3.78;;;;;;;8.16;85.94;99135.50;5008950;28;20045;-47
2023/03/16 03:21:24;;;;;;;9.20;5.20;;;;;;;8.21;86.00;99136.28;5039489;28;20120;-48
2023/03/16 03:23:51;;;;;;;12.50;6.40;;;;;;;8.21;86.20;99133.72;5007714;28;20136;-47
2023/03/16 03:26:18;;;;;;;9.73;3.72;;;;;;;8.20;85.52;99121.69;5009555;28;20050;-50
2023/03/16 03:28:45;;;;;;;10.65;5.53;;;;;;;8.25;86.18;99133.69;5008309;28;20088;-47
2023/03/16 03:31:19;;;;;;;11.73;5.53;;;;;;;8.28;85.49;99128.53;5008023;28;20037;-48
2023/03/16 03:33:46;;;;;;;10.60;5.32;;;;;;;8.31;85.50;99126.75;5009625;28;20065;-48
2023/03/16 03:36:13;;;;;;;11.60;5.28;;;;;;;8.30;86.28;99122.47;5008080;28;20045;-48
2023/03/16 03:38:40;;;;;;;9.73;5.40;;;;;;;8.34;86.48;99118.13;5003834;28;20140;-49
2023/03/16 03:41:07;;;;;;;8.00;5.18;;;;;;;8.37;86.22;99128.44;5010754;28;20069;-48
2023/03/16 03:43:34;;;;;;;9.10;3.00;;;;;;;8.40;86.06;99117.22;4994019;28;23527;-49
2023/03/16 03:46:02;;;;;;;10.05;5.45;;;;;;;8.46;85.70;99118.03;4998261;28;20056;-48
2023/03/16 03:48:29;;;;;;;9.40;3.45;;;;;;;8.48;85.36;99105.97;4998809;28;20484;-48
2023/03/16 03:50:56;;;;;;;12.60;4.95;;;;;;;8.53;85.17;99107.66;4999826;28;20498;-48
2023/03/16 03:53:22;;;;;;;9.88;4.45;;;;;;;8.52;85.58;99111.09;4999019;28;20081;-47
2023/03/16 03:55:49;;;;;;;5.57;2.25;;;;;;;8.49;86.28;99102.50;5002348;28;20049;-48
2023/03/16 03:58:16;;;;;;;4.75;2.40;;;;;;;8.57;85.09;99111.94;5003733;28;20417;-49
2023/03/16 04:00:42;;;;;;;8.88;2.45;;;;;;;8.52;86.21;99106.81;5001079;28;21737;-50
2023/03/16 04:03:09;;;;;;;7.47;1.92;;;;;;;8.58;86.30;99105.94;5003343;28;20680;-50
2023/03/16 04:05:36;;;;;;;6.85;1.75;;;;;;;8.60;85.42;99106.75;4999651;28;20050;-49
2023/03/16 04:08:03;;;;;;;6.88;2.30;;;;;;;8.63;85.34;99101.56;5008026;28;20077;-48
2023/03/16 04:10:30;;;;;;;9.27;3.95;;;;;;;8.65;85.80;99096.38;5001178;28;20086;-47
2023/03/16 04:12:58;;;;;;;6.07;3.50;;;;;;;8.68;85.93;99112.69;4999007;28;20081;-49
2023/03/16 04:15:25;;;;;;;5.55;3.53;;;;;;;8.65;85.82;99102.38;5004591;28;20113;-47
2023/03/16 04:17:52;;;;;;;6.28;3.85;;;;;;;8.70;85.42;99103.22;5000485;28;20050;-49
2023/03/16 04:20:18;;;;;;;9.63;3.88;;;;;;;8.72;85.18;99109.19;5001937;28;20509;-48
2023/03/16 04:22:46;;;;;;;4.63;3.20;;;;;;;8.73;85.61;99095.44;5000193;28;20061;-49
2023/03/16 04:25:15;;;;;;;4.55;3.20;;;;;;;8.74;85.79;99097.16;4997287;28;20163;-49
2023/03/16 04:27:42;;;;;;;6.80;3.38;;;;;;;8.75;85.32;99098.00;5003166;28;20078;-47
2023/03/16 04:30:14;;;;;;;3.97;3.03;;;;;;;8.78;85.49;99091.97;4998986;28;20532;-49
2023/03/16 04:32:41;;;;;;;8.57;3.13;;;;;;;8.80;85.88;99087.63;4997858;28;20082;-48
2023/03/16 04:35:08;;;;;;;6.05;1.50;;;;;;;8.84;84.78;99086.72;4997865;28;20382;-47
2023/03/16 04:37:35;;;;;;;4.10;3.22;;;;;;;8.81;85.52;99071.28;4978030;28;20153;-48
2023/03/16 04:40:09;;;;;;;5.65;3.17;;;;;;;8.81;85.18;99076.44;4987322;28;20141;-47
2023/03/16 04:42:37;;;;;;;8.25;3.58;;;;;;;8.84;85.30;99064.34;4997155;28;20045;-48
2023/03/16 04:45:04;;;;;;;4.90;3.35;;;;;;;8.86;85.48;99066.91;4993319;28;20082;-48
2023/03/16 04:47:32;;;;;;;3.45;1.10;;;;;;;8.83;85.21;99067.81;4993190;28;20081;-48
2023/03/16 04:50:01;;;;;;;4.40;2.45;;;;;;;8.82;85.04;99072.97;4999330;28;20258;-50
2023/03/16 04:52:28;;;;;;;4.25;2.70;;;;;;;8.85;85.29;99070.38;5002005;28;20100;-50
2023/03/16 04:54:54;;;;;;;9.55;3.83;;;;;;;8.85;85.20;99062.63;4994392;28;20121;-51
2023/03/16 04:57:21;;;;;;;5.97;1.27;;;;;;;8.83;84.99;99054.88;4995220;28;20262;-47
2023/03/16 04:59:48;;;;;;;4.32;2.85;;;;;;;8.89;84.38;99064.28;4990572;28;20057;-47
2023/03/16 05:02:16;;;;;;;5.43;2.47;;;;;;;8.87;84.89;99060.84;4998159;28;20091;-48
2023/03/16 05:04:43;;;;;;;4.15;1.45;;;;;;;8.85;84.26;99058.28;4997193;28;20050;-48
2023/03/16 05:07:10;;;;;;;10.07;0.90;;;;;;;8.80;85.03;99052.34;4997650;28;20100;-50
2023/03/16 05:09:36;;;;;;;4.38;1.10;;;;;;;8.88;84.85;99054.81;4995354;28;20041;-48
2023/03/16 05:12:03;;;;;;;4.90;1.40;;;;;;;8.91;84.20;99049.63;4995330;28;20741;-48
2023/03/16 05:14:30;;;;;;;6.93;2.70;;;;;;;8.90;85.10;99047.91;4995172;28;20145;-50
2023/03/16 05:16:56;;;;;;;9.07;2.97;;;;;;;8.93;84.69;99042.72;4994819;28;20042;-47
2023/03/16 05:19:23;;;;;;;4.63;3.00;;;;;;;8.93;84.04;99044.44;4994554;28;20052;-47
2023/03/16 05:21:50;;;;;;;4.95;2.58;;;;;;;8.94;84.11;99047.00;4995296;28;20141;-48
2023/03/16 05:24:16;;;;;;;6.35;3.55;;;;;;;8.99;84.08;99039.22;4995044;28;20514;-49
2023/03/16 05:26:43;;;;;;;5.00;2.75;;;;;;;8.98;84.19;99028.00;4993932;28;20710;-49
2023/03/16 05:29:10;;;;;;;7.53;2.97;;;;;;;9.02;84.37;99038.31;4992489;28;20093;-48
2023/03/16 05:31:37;;;;;;;4.55;2.40;;;;;;;9.04;83.81;99036.53;4994053;28;20077;-48
2023/03/16 05:34:03;;;;;;;6.32;1.63;;;;;;;9.05;84.14;99043.44;4996651;28;20054;-49
2023/03/16 05:36:30;;;;;;;9.32;3.17;;;;;;;9.05;83.97;99049.44;4993571;28;20641;-48
2023/03/16 05:38:58;;;;;;;8.45;1.63;;;;;;;9.04;83.77;99041.72;4993863;28;20057;-49
2023/03/16 05:41:25;;;;;;;5.78;1.08;;;;;;;9.07;84.34;99046.84;4993714;28;20308;-47
2023/03/16 05:43:51;;;;;;;4.10;2.80;;;;;;;9.10;83.94;99046.81;4993843;28;20509;-48
2023/03/16 05:46:18;;;;;;;5.97;2.55;;;;;;;9.00;84.59;99046.94;4996027;28;20073;-48
2023/03/16 05:48:46;;;;;;;5.78;2.75;;;;;;;9.01;84.37;99058.09;4995215;28;20176;-48
2023/03/16 05:51:13;;;;;;;6.22;2.58;;;;;;;9.08;83.97;99048.53;4998768;28;20141;-50
2023/03/16 05:53:39;;;;;;;6.15;1.35;;;;;;;9.08;83.84;99048.53;4991106;28;20255;-47
2023/03/16 05:56:06;;;;;;;2.35;1.10;;;;;;;9.06;83.58;99056.34;5000503;28;20078;-48
2023/03/16 05:58:33;;;;;;;5.75;0.90;;;;;;;9.12;83.77;99055.41;4996938;28;20042;-48
2023/03/16 06:01:00;;;;;;;5.40;2.67;;;;;;;9.09;83.96;99055.44;4997328;28;20501;-49
2023/03/16 06:03:27;;;;;;;8.60;2.50;;;;;;;9.14;83.30;99053.66;4997665;28;20046;-48
2023/03/16 06:05:54;;;;;;;7.82;1.55;;;;;;;9.16;83.23;99054.50;4992366;28;20092;-48
2023/03/16 06:08:21;;;;;;;8.73;2.90;;;;;;;9.17;83.55;99053.63;4999120;28;20155;-48
2023/03/16 06:10:47;;;;;;;4.32;3.05;;;;;;;9.15;83.42;99055.34;5005609;28;20588;-47
2023/03/16 06:13:14;;;;;;;7.35;2.03;;;;;;;9.18;83.57;99054.47;5000143;28;20042;-49
2023/03/16 06:15:40;;;;;;;7.28;2.47;;;;;;;9.19;83.58;99054.44;5000827;28;20756;-49
2023/03/16 06:18:07;;;;;;;4.57;2.65;;;;;;;9.21;83.44;99057.00;5000846;28;20061;-48
2023/03/16 06:20:34;;;;;;;6.43;3.40;;;;;;;9.19;83.13;99059.59;4998888;28;20058;-49
2023/03/16 06:23:00;;;;;;;13.75;3.22;;;;;;;9.24;82.88;99060.41;4996214;28;20050;-48
2023/03/16 06:25:27;;;;;;;6.00;3.33;;;;;;;9.23;83.12;99053.50;4984375;28;20074;-48
2023/03/16 06:27:54;;;;;;;5.28;3.58;;;;;;;9.23;82.98;99043.19;4986700;28;20096;-50
2023/03/16 06:30:20;;;;;;;5.78;2.45;;;;;;;9.21;83.54;99039.78;4998792;28;20086;-48
2023/03/16 06:32:47;;;;;;;6.75;2.67;;;;;;;9.22;83.28;99046.66;5002863;28;20089;-49
2023/03/16 06:35:14;;;;;;;6.72;3.17;;;;;;;9.23;83.09;99038.00;4997591;28;20140;-49
2023/03/16 06:37:40;;;;;;;7.70;1.00;;;;;;;9.25;83.38;99035.41;4994307;28;20144;-48
2023/03/16 06:40:08;;;;;;;3.22;1.00;;;;;;;9.28;82.88;99039.72;4995152;28;20104;-48
2023/03/16 06:42:35;;;;;;;3.63;2.35;;;;;;;9.25;83.13;99046.59;4995332;28;20054;-48
2023/03/16 06:45:02;;;;;;;8.32;1.17;;;;;;;9.31;82.87;99044.81;4994523;28;20174;-47
2023/03/16 06:47:28;;;;;;;9.35;3.35;;;;;;;9.27;82.72;99044.00;4992580;28;20593;-49
2023/03/16 06:49:55;;;;;;;4.15;2.13;;;;;;;9.32;82.91;99042.19;4990568;28;20070;-52
2023/03/16 06:52:21;;;;;;;7.05;3.08;;;;;;;9.30;83.07;99036.22;4992434;28;20066;-49
2023/03/16 06:54:48;;;;;;;12.30;2.92;;;;;;;9.33;82.83;99035.31;4992875;28;20576;-48
2023/03/16 06:57:15;;;;;;;7.38;3.65;;;;;;;9.32;82.59;99031.03;4992331;28;20715;-51
2023/03/16 06:59:42;;;;;;;4.63;1.30;;;;;;;9.33;82.95;99027.56;4986996;28;20069;-51
2023/03/16 07:02:12;;;;;;;7.20;2.80;;;;;;;9.37;82.87;99018.91;4992855;28;20129;-49
2023/03/16 07:04:40;;;;;;;7.25;1.30;;;;;;;9.35;83.00;99018.03;4990982;28;20102;-49
2023/03/16 07:07:08;;;;;;;4.78;3.20;;;;;;;9.35;83.19;99015.47;4992298;28;20042;-50
2023/03/16 07:09:35;;;;;;;9.55;4.30;;;;;;;9.40;82.66;99024.03;4990733;28;20132;-46
2023/03/16 07:12:05;;;;;;;5.32;3.38;;;;;;;9.38;82.73;99005.09;4992725;28;20074;-46
2023/03/16 07:14:32;;;;;;;6.03;2.88;;;;;;;9.37;82.52;99001.66;4990671;28;20133;-48
2023/03/16 07:16:59;;;;;;;3.55;2.40;;;;;;;9.41;82.35;99010.22;4998577;28;20049;-46
2023/03/16 07:19:25;;;;;;;5.63;1.30;;;;;;;9.40;82.66;99013.69;4996603;28;20144;-48
2023/03/16 07:21:52;;;;;;;4.90;2.15;;;;;;;9.38;82.43;99018.88;4995981;28;20065;-48
2023/03/16 07:24:19;;;;;;;4.07;2.55;;;;;;;9.42;82.21;99019.66;5007157;28;20072;-49
2023/03/16 07:26:46;;;;;;;7.60;2.28;;;;;;;9.42;81.59;99011.91;5004225;28;20065;-48
2023/03/16 07:29:13;;;;;;;7.53;0.90;;;;;;;9.42;82.31;99006.75;5004464;28;20386;-48
2023/03/16 07:31:39;;;;;;;6.25;3.00;;;;;;;9.44;82.37;99005.00;4999238;28;20069;-49
2023/03/16 07:34:06;;;;;;;8.15;2.78;;;;;;;9.46;82.42;99011.00;4998505;28;20095;-50
2023/03/16 07:36:33;;;;;;;6.25;2.55;;;;;;;9.51;82.14;99016.97;5000071;28;20056;-48
2023/03/16 07:39:00;;;;;;;5.57;2.47;;;;;;;9.54;81.90;99020.38;5002667;28;20496;-51
2023/03/16 07:41:26;;;;;;;8.15;3.47;;;;;;;9.57;81.82;99026.34;4999929;28;20101;-48
2023/03/16 07:43:54;;;;;;;4.18;1.17;;;;;;;9.59;81.80;99034.09;5002890;28;20076;-48
2023/03/16 07:46:21;;;;;;;6.00;3.33;;;;;;;9.60;81.91;99035.78;4998150;28;20081;-49
2023/03/16 07:48:47;;;;;;;5.00;0.70;;;;;;;9.61;81.69;99040.94;4999834;28;20412;-48
2023/03/16 07:51:14;;;;;;;4.97;2.15;;;;;;;9.60;81.83;99051.31;4998234;28;20133;-51
2023/03/16 07:53:41;;;;;;;3.40;0.70;;;;;;;9.64;81.82;99042.63;4995820;28;20050;-48
2023/03/16 07:56:08;;;;;;;6.00;0.70;;;;;;;9.67;82.00;99041.72;4998442;28;20046;-49
2023/03/16 07:58:34;;;;;;;3.72;0.73;;;;;;;9.67;81.47;99044.31;5001111;28;20038;-48
2023/03/16 08:01:01;;;;;;;6.30;0.88;;;;;;;9.67;81.86;99052.94;4998431;28;20104;-50
2023/03/16 08:03:28;;;;;;;3.03;1.20;;;;;;;9.67;81.48;99054.66;4997130;28;21425;-49
2023/03/16 08:05:55;;;;;;;5.38;2.17;;;;;;;9.66;81.39;99043.44;4984400;28;20520;-48
2023/03/16 08:08:22;;;;;;;2.28;1.00;;;;;;;9.69;81.42;99043.41;5003599;28;20046;-49
2023/03/16 08:10:51;;;;;;;5.93;2.85;;;;;;;9.68;81.66;99044.28;4980522;28;20070;-50
2023/03/16 08:13:21;;;;;;;5.47;0.82;;;;;;;9.73;80.86;99052.81;4986349;28;20437;-48
2023/03/16 08:15:54;;;;;;;6.43;2.80;;;;;;;9.75;81.22;99051.06;4998606;28;20050;-51
2023/03/16 08:18:22;;;;;;;7.93;1.45;;;;;;;9.73;81.33;99046.81;4996607;28;20464;-48
2023/03/16 08:20:49;;;;;;;7.88;2.33;;;;;;;9.72;80.78;99050.25;4992095;28;20054;-48
2023/03/16 08:23:16;;;;;;;4.03;3.03;;;;;;;9.76;81.21;99037.25;4999321;28;20045;-49
2023/03/16 08:25:42;;;;;;;6.47;1.30;;;;;;;9.77;81.38;99041.53;4996645;28;20057;-49
2023/03/16 08:28:11;;;;;;;3.65;2.78;;;;;;;9.81;81.00;99036.31;5001799;28;20069;-48
2023/03/16 08:30:44;;;;;;;3.83;1.00;;;;;;;9.84;80.74;99038.88;4992675;28;20069;-49
2023/03/16 08:33:11;;;;;;;3.95;0.50;;;;;;;9.88;81.08;99045.69;4996207;28;20450;-49
2023/03/16 08:35:43;;;;;;;7.05;2.15;;;;;;;9.88;80.98;99045.69;4995499;28;20054;-49
2023/03/16 08:38:11;;;;;;;7.32;2.38;;;;;;;9.90;80.69;99039.63;5013074;28;20137;-50
2023/03/16 08:40:40;;;;;;;7.53;1.02;;;;;;;9.92;80.05;99041.34;4997257;28;20070;-48
2023/03/16 08:43:07;;;;;;;4.90;2.38;;;;;;;9.92;80.61;99039.59;4998767;28;20710;-49
2023/03/16 08:45:34;;;;;;;6.25;2.38;;;;;;;9.97;80.51;99032.59;4998224;28;20072;-46
2023/03/16 08:48:00;;;;;;;3.50;2.25;;;;;;;10.01;81.10;99036.88;4996418;28;20157;-49
2023/03/16 08:50:27;;;;;;;5.97;2.10;;;;;;;10.09;80.10;99033.28;4997740;28;20046;-49
2023/03/16 08:52:54;;;;;;;7.78;2.28;;;;;;;10.11;80.13;99031.53;4996976;28;20046;-47
2023/03/16 08:55:21;;;;;;;5.32;2.33;;;;;;;10.17;79.99;99026.25;4996428;28;20500;-48
2023/03/16 08:57:48;;;;;;;5.93;1.95;;;;;;;10.22;79.93;99039.09;4998299;28;20046;-49
2023/03/16 09:00:16;;;;;;;6.22;2.50;;;;;;;10.23;80.55;99044.25;4996814;28;20057;-47
2023/03/16 09:02:43;;;;;;;6.95;1.00;;;;;;;10.32;79.92;99030.31;4994403;28;20494;-49
2023/03/16 09:05:13;;;;;;;5.80;2.28;;;;;;;10.44;79.66;99034.41;4994562;28;20509;-48
2023/03/16 09:07:41;;;;;;;2.30;0.80;;;;;;;10.58;80.07;99025.56;4993512;28;20050;-49
2023/03/16 09:10:12;;;;;;;11.02;2.25;;;;;;;10.63;78.93;99021.13;4997541;28;20081;-48
2023/03/16 09:12:39;;;;;;;6.45;2.97;;;;;;;10.72;79.74;99023.56;5001904;28;20092;-46
2023/03/16 09:15:08;;;;;;;3.45;0.90;;;;;;;10.71;78.75;99023.59;5000115;28;20052;-47
2023/03/16 09:17:35;;;;;;;7.38;0.82;;;;;;;10.73;78.63;99030.44;4997022;28;20050;-47
2023/03/16 09:20:04;;;;;;;4.78;0.82;;;;;;;10.80;79.17;99025.97;4994899;28;20049;-48
2023/03/16 09:22:47;;;;;;;5.05;1.05;;;;;;;10.76;78.93;99030.38;5003901;28;20062;-46
2023/03/16 09:25:14;;;;;;;4.03;1.13;;;;;;;10.81;78.11;99017.34;4996353;28;20073;-47
2023/03/16 09:27:41;;;;;;;7.38;2.38;;;;;;;10.82;78.48;99024.22;4999833;28;20500;-46
2023/03/16 09:30:09;;;;;;;3.92;1.23;;;;;;;10.86;78.61;99030.19;4994588;28;20057;-46
2023/03/16 09:32:36;;;;;;;5.68;1.02;;;;;;;11.00;78.79;99035.94;4995772;28;20046;-47
2023/03/16 09:35:05;;;;;;;7.25;2.53;;;;;;;11.16;79.09;99038.19;4995950;28;20049;-48
2023/03/16 09:37:32;;;;;;;3.00;1.02;;;;;;;11.25;77.74;99035.41;4998998;28;20042;-48
2023/03/16 09:40:22;;;;;;;8.35;2.55;;;;;;;11.25;77.00;99035.41;4994517;28;20058;-51
2023/03/16 09:43:01;;;;;;;4.10;1.23;;;;;;;11.31;76.88;99032.69;4996580;28;20057;-50
2023/03/16 09:45:57;;;;;;;8.18;1.02;;;;;;;11.34;76.66;99030.94;4988227;28;20042;-47
2023/03/16 09:48:28;;;;;;;4.40;3.10;;;;;;;11.39;77.30;99036.84;4989227;28;20050;-50
2023/03/16 09:50:55;;;;;;;9.27;4.50;;;;;;;11.30;76.13;99033.59;4992937;28;20255;-51
2023/03/16 09:53:28;;;;;;;10.57;1.40;;;;;;;11.21;76.92;99041.53;4996848;28;20068;-49
2023/03/16 09:56:03;;;;;;;6.07;1.15;;;;;;;11.07;76.01;99028.03;4995584;28;20057;-48
2023/03/16 09:58:31;;;;;;;4.35;0.95;;;;;;;11.04;76.36;99035.00;4996112;28;20044;-48
2023/03/16 10:04:12;;;;;;;6.05;1.73;;;;;;;10.83;76.80;99025.91;5021477;28;20410;-47
2023/03/16 10:07:11;;;;;;;10.57;2.10;;;;;;;10.76;76.85;99020.03;5017039;28;20049;-48
2023/03/16 10:09:57;;;;;;;5.70;1.15;;;;;;;10.69;76.80;99018.44;5042570;28;20176;-48
2023/03/16 10:12:31;;;;;;;11.32;1.98;;;;;;;10.77;77.21;99021.72;5042837;28;20624;-47
2023/03/16 10:15:08;;;;;;;5.32;1.40;;;;;;;10.78;77.45;99030.34;5018116;28;20065;-48
2023/03/16 10:17:37;;;;;;;;;;;;;;;10.75;76.86;99010.53;5014856;28;20076;-49
2023/03/16 10:20:10;;;;;;;4.75;0.90;;;;;;;10.85;77.63;99013.81;5018155;28;20510;-48
2023/03/16 10:22:41;;;;;;;6.00;1.08;;;;;;;10.98;76.80;99021.31;5048165;28;20076;-48
2023/03/16 10:27:51;;;;;;;4.55;2.97;;;;;;;11.03;77.21;99022.94;5026546;28;20411;-50
2023/03/16 10:30:29;;;;;;;4.55;2.92;;;;;;;11.08;76.26;99020.22;5011098;28;20115;-48
2023/03/16 10:33:04;;;;;;;5.93;2.60;;;;;;;11.16;76.12;99007.09;4999983;28;20054;-48
2023/03/16 10:38:47;;;;;;;4.93;1.25;;;;;;;11.32;76.29;99013.66;5060039;28;20388;-49
2023/03/16 10:44:16;;;;;;;5.72;1.48;;;;;;;11.56;74.97;98982.84;5040518;28;20404;-48
2023/03/16 10:46:47;;;;;;;5.28;2.17;;;;;;;11.55;76.04;98983.75;5010044;28;20061;-49
2023/03/16 10:49:26;;;;;;;5.03;4.53;;;;;;;11.52;74.87;98982.97;4996600;28;20140;-48
2023/03/16 10:51:55;;;;;;;4.90;2.20;;;;;;;11.52;75.23;98976.03;5011705;28;20146;-48
2023/03/16 10:54:34;;;;;;;5.60;2.20;;;;;;;11.52;75.77;98968.25;4996196;28;20128;-51
2023/03/16 10:57:24;;;;;;;4.53;2.20;;;;;;;11.62;75.38;98963.69;4996464;28;20050;-48
2023/03/16 10:59:55;;;;;;;5.72;2.30;;;;;;;11.74;74.47;98961.69;4994741;28;20058;-49
2023/03/16 11:02:29;;;;;;;3.70;0.77;;;;;;;11.77;74.52;98962.47;4996235;28;20108;-50
2023/03/16 11:04:56;;;;;;;4.40;1.15;;;;;;;11.81;73.81;98961.50;4999061;28;20582;-48
2023/03/16 11:07:24;;;;;;;10.60;3.13;;;;;;;11.88;75.31;98962.19;4992858;28;20046;-50
2023/03/16 11:09:51;;;;;;;2.28;0.75;;;;;;;11.91;74.26;98974.22;4993081;28;20399;-48
2023/03/16 11:15:12;;;;;;;4.43;1.00;;;;;;;11.78;74.42;98987.53;5028603;27;20380;-47
2023/03/16 11:17:52;;;;;;;2.83;0.55;;;;;;;11.76;73.36;98978.06;4993146;28;20560;-47
2023/03/16 11:20:25;;;;;;;5.40;1.38;;;;;;;11.73;73.96;98972.97;5012761;28;20050;-50
2023/03/16 11:22:51;;;;;;;4.68;1.00;;;;;;;11.76;73.38;98976.31;5013499;28;20081;-49
2023/03/16 11:25:27;;;;;;;2.60;0.90;;;;;;;11.73;73.30;98973.81;4997531;28;20141;-50
2023/03/16 11:30:48;;;;;;;4.60;0.98;;;;;;;11.74;73.95;98978.09;5056859;27;20417;-47
2023/03/16 11:33:15;;;;;;;6.90;1.45;;;;;;;11.70;73.61;98968.69;5026766;28;20063;-48
2023/03/16 11:47:18;;;;;;;2.67;0.63;;;;;;;11.90;72.87;98956.97;5018042;27;20429;-48
2023/03/16 11:49:56;;;;;;;5.47;1.00;;;;;;;11.90;72.62;98954.38;5001005;28;20128;-48
2023/03/16 11:52:48;;;;;;;5.00;0.95;;;;;;;11.89;72.35;98947.50;5000797;28;20073;-51
2023/03/16 12:07:03;;;;;;;4.85;1.10;;;;;;;12.05;72.46;98951.38;5022531;28;20404;-50
2023/03/16 12:10:02;;;;;;;3.47;1.15;;;;;;;12.13;73.13;98950.34;4988877;28;20061;-51
2023/03/16 12:15:38;;;;;;;5.10;0.95;;;;;;;12.33;72.16;98949.81;5022169;28;20415;-49
2023/03/16 12:20:57;;;;;;;3.33;2.58;;;;;;;12.41;71.58;98952.19;5075305;27;20739;-49
2023/03/16 12:23:37;;;;;;;2.33;0.80;;;;;;;12.41;72.52;98949.59;5042870;28;20073;-47
2023/03/16 12:26:04;;;;;;;5.93;1.23;;;;;;;12.51;71.38;98942.41;5032971;28;20590;-50
2023/03/16 12:28:32;;;;;;;4.57;1.48;;;;;;;12.60;72.12;98942.97;5036743;28;20103;-47
2023/03/16 12:31:22;;;;;;;5.45;1.38;;;;;;;12.71;71.61;98934.03;5034720;28;20111;-51
2023/03/16 12:34:15;;;;;;;8.13;1.50;;;;;;;12.84;71.56;98939.72;5036046;28;20057;-48
2023/03/16 12:47:30;;;;;;;5.15;2.83;;;;;;;12.98;70.63;98942.72;5053707;28;20401;-47
2023/03/16 12:50:07;;;;;;;6.13;3.20;;;;;;;13.03;70.96;98940.00;5054187;28;20072;-48
2023/03/16 12:58:11;;;;;;;5.00;1.52;;;;;;;13.09;70.55;98932.03;5032632;28;20413;-49